createdAt,value
2023-04-20T00:02:16.408Z,6.60
2023-04-20T00:04:43.325Z,8.93
2023-04-20T00:07:10.269Z,6.03
2023-04-20T00:09:36.766Z,7.25
2023-04-20T00:12:03.314Z,5.57
2023-04-20T00:14:29.919Z,5.32
2023-04-20T00:16:56.330Z,6.33
2023-04-20T00:19:23.153Z,9.60
2023-04-20T00:21:49.989Z,7.25
2023-04-20T00:24:16.389Z,5.10
2023-04-20T00:26:42.748Z,7.93
2023-04-20T00:29:09.242Z,4.50
2023-04-20T00:31:35.712Z,5.35
2023-04-20T00:34:02.169Z,14.88
2023-04-20T00:36:28.605Z,7.15
2023-04-20T00:38:54.998Z,7.97
2023-04-20T00:41:21.470Z,7.60
2023-04-20T00:43:52.729Z,6.65
2023-04-20T00:46:21.071Z,5.40
2023-04-20T00:48:50.048Z,5.95
2023-04-20T00:51:16.672Z,8.15
2023-04-20T00:53:43.110Z,7.55
2023-04-20T00:56:09.776Z,7.05
2023-04-20T00:58:36.465Z,7.67
2023-04-20T01:01:02.972Z,8.13
2023-04-20T01:03:29.592Z,10.05
2023-04-20T01:05:56.533Z,9.87
2023-04-20T01:08:27.553Z,8.55
2023-04-20T01:10:55.119Z,6.85
2023-04-20T01:15:48.181Z,5.78
2023-04-20T01:18:15.278Z,7.95
2023-04-20T01:20:41.781Z,7.30
2023-04-20T01:23:08.148Z,5.55
2023-04-20T01:25:34.545Z,9.05
2023-04-20T01:28:02.018Z,11.80
2023-04-20T01:30:29.169Z,7.57
2023-04-20T01:32:55.779Z,6.55
2023-04-20T01:35:22.223Z,6.88
2023-04-20T01:37:48.671Z,6.40
2023-04-20T01:40:15.948Z,8.23
2023-04-20T01:42:42.348Z,7.45
2023-04-20T01:45:09.200Z,11.10
2023-04-20T01:47:35.970Z,6.97
2023-04-20T01:50:02.569Z,8.77
2023-04-20T01:52:28.925Z,9.52
2023-04-20T01:54:55.309Z,7.57
2023-04-20T01:57:21.707Z,5.32
2023-04-20T01:59:48.797Z,8.57
2023-04-20T02:02:15.359Z,6.55
2023-04-20T02:04:41.773Z,6.80
2023-04-20T02:07:08.135Z,9.90
2023-04-20T02:09:34.598Z,8.43
2023-04-20T02:12:02.119Z,10.65
2023-04-20T02:16:54.949Z,8.95
2023-04-20T02:19:21.426Z,6.25
2023-04-20T02:21:47.829Z,6.82
2023-04-20T02:24:14.208Z,11.68
2023-04-20T02:26:40.619Z,8.90
2023-04-20T02:29:07.010Z,6.43
2023-04-20T02:31:34.364Z,6.80
2023-04-20T02:34:00.899Z,10.15
2023-04-20T02:36:28.148Z,7.10
2023-04-20T02:38:54.535Z,8.27
2023-04-20T02:41:21.114Z,7.25
2023-04-20T02:43:47.497Z,5.43
2023-04-20T02:46:13.950Z,6.70
2023-04-20T02:48:40.561Z,7.57
2023-04-20T02:51:07.045Z,6.60
2023-04-20T02:53:33.485Z,9.38
2023-04-20T02:55:59.886Z,8.32
2023-04-20T02:58:26.540Z,7.28
2023-04-20T03:00:59.393Z,8.47
2023-04-20T03:03:26.041Z,8.75
2023-04-20T03:05:52.693Z,8.55
2023-04-20T03:08:19.077Z,9.52
2023-04-20T03:10:45.545Z,6.85
2023-04-20T03:13:11.921Z,6.65
2023-04-20T03:15:38.344Z,13.30
2023-04-20T03:18:05.018Z,7.60
2023-04-20T03:20:32.098Z,8.30
2023-04-20T03:22:58.543Z,5.47
2023-04-20T03:25:25.101Z,8.45
2023-04-20T03:27:51.456Z,38.28
2023-04-20T03:30:17.804Z,10.40
2023-04-20T03:32:45.075Z,5.97
2023-04-20T03:35:11.533Z,9.38
2023-04-20T03:37:38.253Z,9.05
2023-04-20T03:40:07.042Z,7.93
2023-04-20T03:42:33.497Z,7.32
2023-04-20T03:44:59.992Z,6.55
2023-04-20T03:47:26.458Z,8.07
2023-04-20T03:49:52.908Z,6.63
2023-04-20T03:52:19.358Z,6.75
2023-04-20T03:54:45.881Z,8.40
2023-04-20T03:57:13.342Z,8.90
2023-04-20T03:59:39.691Z,8.43
2023-04-20T04:02:06.307Z,6.95
2023-04-20T04:04:33.257Z,9.47
2023-04-20T04:06:59.864Z,9.63
2023-04-20T04:09:26.665Z,10.68
2023-04-20T04:11:53.087Z,12.23
2023-04-20T04:14:19.470Z,8.32
2023-04-20T04:16:46.336Z,8.55
2023-04-20T04:19:12.792Z,18.83
2023-04-20T04:21:39.220Z,7.78
2023-04-20T04:24:05.908Z,9.45
2023-04-20T04:26:33.604Z,10.23
2023-04-20T04:29:00.042Z,8.18
2023-04-20T04:31:26.625Z,17.17
2023-04-20T04:33:53.144Z,10.30
2023-04-20T04:36:19.880Z,9.65
2023-04-20T04:38:46.385Z,10.80
2023-04-20T04:41:13.090Z,10.27
2023-04-20T04:43:41.049Z,7.90
2023-04-20T04:46:11.508Z,7.70
2023-04-20T04:48:40.521Z,11.13
2023-04-20T04:51:06.961Z,8.43
2023-04-20T04:53:33.423Z,10.88
2023-04-20T04:56:00.023Z,8.60
2023-04-20T04:58:26.499Z,8.23
2023-04-20T05:00:53.014Z,10.30
2023-04-20T05:03:19.525Z,7.97
2023-04-20T05:05:46.150Z,7.63
2023-04-20T05:08:12.799Z,8.52
2023-04-20T05:10:39.244Z,6.30
2023-04-20T05:13:05.829Z,7.63
2023-04-20T05:15:32.433Z,8.43
2023-04-20T05:17:59.163Z,9.43
2023-04-20T05:20:25.636Z,7.72
2023-04-20T05:22:52.177Z,7.03
2023-04-20T05:25:18.877Z,7.18
2023-04-20T05:27:45.400Z,6.47
2023-04-20T05:30:20.269Z,7.63
2023-04-20T05:32:51.090Z,6.60
2023-04-20T05:35:18.737Z,7.30
2023-04-20T05:37:45.339Z,10.77
2023-04-20T05:40:12.000Z,9.82
2023-04-20T05:42:38.526Z,7.10
2023-04-20T05:45:05.567Z,9.63
2023-04-20T05:47:32.131Z,13.32
2023-04-20T05:49:58.582Z,8.13
2023-04-20T05:52:25.106Z,9.90
2023-04-20T05:54:51.513Z,8.50
2023-04-20T05:57:17.882Z,8.43
2023-04-20T05:59:44.953Z,8.15
2023-04-20T06:02:11.461Z,9.07
2023-04-20T06:04:38.270Z,8.38
2023-04-20T06:07:04.798Z,8.23
2023-04-20T06:09:31.313Z,8.85
2023-04-20T06:14:26.706Z,8.88
2023-04-20T06:16:53.143Z,7.32
2023-04-20T06:19:19.613Z,10.32
2023-04-20T06:21:46.458Z,7.22
2023-04-20T06:24:12.918Z,10.82
2023-04-20T06:26:39.377Z,7.90
2023-04-20T06:29:05.789Z,11.18
2023-04-20T06:31:32.589Z,10.23
2023-04-20T06:33:59.052Z,12.43
2023-04-20T06:36:25.756Z,11.20
2023-04-20T06:38:52.310Z,9.67
2023-04-20T06:41:18.692Z,11.35
2023-04-20T06:43:46.253Z,8.52
2023-04-20T06:48:39.170Z,6.90
2023-04-20T06:51:05.911Z,7.30
2023-04-20T06:53:32.402Z,8.90
2023-04-20T06:55:58.987Z,10.13
2023-04-20T06:58:25.540Z,9.23
2023-04-20T07:00:52.398Z,9.30
2023-04-20T07:03:19.579Z,11.57
2023-04-20T07:05:46.737Z,8.10
2023-04-20T07:08:15.548Z,9.80
2023-04-20T07:10:42.019Z,8.23
2023-04-20T07:13:08.428Z,10.07
2023-04-20T07:15:34.793Z,7.50
2023-04-20T07:18:01.306Z,8.68
2023-04-20T07:20:27.712Z,8.30
2023-04-20T07:22:54.159Z,7.47
2023-04-20T07:25:20.649Z,8.68
2023-04-20T07:27:47.133Z,9.43
2023-04-20T07:30:13.924Z,7.85
2023-04-20T07:32:41.583Z,11.60
2023-04-20T07:35:09.149Z,11.15
2023-04-20T07:40:06.463Z,8.75
2023-04-20T07:42:34.875Z,8.20
2023-04-20T07:45:01.574Z,6.53
2023-04-20T07:47:28.074Z,11.50
2023-04-20T07:49:54.873Z,7.95
2023-04-20T07:52:21.384Z,9.15
2023-04-20T07:54:47.899Z,10.63
2023-04-20T07:57:15.163Z,8.90
2023-04-20T07:59:41.660Z,8.88
2023-04-20T08:02:08.674Z,9.95
2023-04-20T08:04:38.762Z,13.80
2023-04-20T08:07:05.508Z,10.13
2023-04-20T08:09:31.925Z,10.13
2023-04-20T08:11:58.530Z,9.77
2023-04-20T08:14:25.007Z,12.53
2023-04-20T08:16:51.477Z,9.75
2023-04-20T08:19:18.100Z,7.80
2023-04-20T08:21:44.537Z,6.93
2023-04-20T08:24:11.302Z,7.85
2023-04-20T08:26:38.709Z,9.95
2023-04-20T08:29:05.682Z,9.93
2023-04-20T08:31:32.477Z,9.35
2023-04-20T08:33:59.004Z,9.02
2023-04-20T08:36:27.972Z,6.75
2023-04-20T08:39:19.757Z,10.18
2023-04-20T08:41:47.057Z,13.40
2023-04-20T08:44:13.748Z,9.35
2023-04-20T08:46:45.622Z,7.32
2023-04-20T08:49:13.175Z,8.27
2023-04-20T08:54:06.938Z,11.57
2023-04-20T08:56:38.393Z,14.52
2023-04-20T08:59:05.756Z,7.35
2023-04-20T09:01:35.607Z,7.15
2023-04-20T09:04:03.585Z,9.05
2023-04-20T09:06:31.178Z,8.45
2023-04-20T09:11:29.616Z,8.82
2023-04-20T09:14:06.761Z,7.55
2023-04-20T09:16:34.724Z,7.90
2023-04-20T09:19:01.332Z,12.13
2023-04-20T09:21:28.877Z,8.73
2023-04-20T09:24:08.407Z,8.18
2023-04-20T09:26:36.164Z,7.53
2023-04-20T09:29:03.997Z,7.65
2023-04-20T09:31:30.608Z,7.05
2023-04-20T09:34:02.144Z,9.80
2023-04-20T09:36:37.332Z,7.20
2023-04-20T09:39:10.256Z,5.95
2023-04-20T09:41:38.332Z,7.57
2023-04-20T09:44:06.075Z,9.98
2023-04-20T09:46:35.261Z,7.68
2023-04-20T09:49:04.750Z,8.80
2023-04-20T09:51:33.182Z,6.78
2023-04-20T09:54:01.211Z,8.27
2023-04-20T09:56:28.737Z,10.70
2023-04-20T10:01:23.471Z,7.47
2023-04-20T10:03:53.837Z,11.82
2023-04-20T10:06:24.615Z,5.97
2023-04-20T10:08:52.167Z,10.27
2023-04-20T10:11:52.812Z,8.40
2023-04-20T10:14:25.635Z,8.65
2023-04-20T10:17:03.273Z,9.20
2023-04-20T10:19:39.787Z,7.10
2023-04-20T10:22:07.816Z,8.55
2023-04-20T10:24:34.588Z,7.10
2023-04-20T10:27:02.827Z,8.32
2023-04-20T10:29:29.704Z,7.38
2023-04-20T10:31:56.654Z,7.45
2023-04-20T10:34:59.941Z,8.65
2023-04-20T10:37:26.701Z,7.95
2023-04-20T10:39:53.200Z,7.30
2023-04-20T10:42:19.626Z,8.00
2023-04-20T10:44:53.986Z,9.70
2023-04-20T10:47:30.924Z,8.40
2023-04-20T10:50:16.492Z,7.13
2023-04-20T10:52:44.155Z,11.85
2023-04-20T10:55:22.692Z,8.98
2023-04-20T10:57:50.581Z,7.50
2023-04-20T11:00:18.718Z,8.60
2023-04-20T11:02:52.449Z,9.77
2023-04-20T11:05:20.524Z,8.15
2023-04-20T11:07:58.040Z,12.57
2023-04-20T11:10:38.115Z,7.47
2023-04-20T11:13:04.580Z,8.52
2023-04-20T11:15:34.249Z,10.37
2023-04-20T11:18:12.007Z,8.18
2023-04-20T11:20:52.255Z,11.27
2023-04-20T11:23:23.491Z,9.68
2023-04-20T11:25:54.609Z,8.52
2023-04-20T11:28:21.457Z,10.27
2023-04-20T11:30:49.614Z,9.93
2023-04-20T11:33:27.644Z,10.38
2023-04-20T11:38:35.003Z,8.35
2023-04-20T11:41:04.792Z,8.73
2023-04-20T11:43:32.548Z,10.25
2023-04-20T11:46:01.973Z,11.15
2023-04-20T11:48:31.815Z,13.23
2023-04-20T11:50:58.809Z,20.75
2023-04-20T11:53:25.400Z,10.77
2023-04-20T11:55:52.048Z,22.87
2023-04-20T11:58:18.479Z,13.18
2023-04-20T12:00:44.916Z,11.50
2023-04-20T12:03:11.584Z,10.10
2023-04-20T12:05:38.247Z,11.10
2023-04-20T12:08:05.721Z,8.60
2023-04-20T12:13:00.017Z,10.85
2023-04-20T12:15:26.944Z,8.85
2023-04-20T12:17:53.579Z,9.68
2023-04-20T12:20:20.136Z,8.85
2023-04-20T12:22:46.537Z,11.10
2023-04-20T12:25:13.104Z,11.70
2023-04-20T12:27:39.819Z,7.80
2023-04-20T12:30:07.573Z,10.68
2023-04-20T12:32:33.997Z,7.88
2023-04-20T12:35:00.484Z,10.47
2023-04-20T12:37:27.492Z,9.17
2023-04-20T12:39:53.894Z,8.50
2023-04-20T12:42:20.311Z,10.30
2023-04-20T12:44:46.721Z,11.13
2023-04-20T12:47:13.738Z,8.47
2023-04-20T12:49:40.262Z,8.30
2023-04-20T12:52:08.155Z,8.02
2023-04-20T12:54:34.750Z,12.55
2023-04-20T12:57:02.486Z,10.37
2023-04-20T12:59:29.082Z,9.57
2023-04-20T13:01:55.557Z,8.55
2023-04-20T13:04:22.501Z,8.47
2023-04-20T13:06:49.306Z,9.07
2023-04-20T13:09:15.749Z,11.80
2023-04-20T13:11:42.138Z,11.47
2023-04-20T13:14:08.509Z,9.93
2023-04-20T13:16:34.985Z,12.30
2023-04-20T13:19:01.551Z,10.23
2023-04-20T13:21:28.058Z,16.03
2023-04-20T13:23:56.220Z,9.65
2023-04-20T13:26:23.385Z,13.35
2023-04-20T13:28:49.776Z,10.13
2023-04-20T13:31:16.354Z,10.50
2023-04-20T13:33:42.826Z,8.73
2023-04-20T13:36:09.458Z,10.32
2023-04-20T13:38:35.974Z,10.77
2023-04-20T13:41:02.454Z,10.10
2023-04-20T13:43:28.850Z,7.35
2023-04-20T13:45:55.367Z,7.75
2023-04-20T13:48:21.756Z,8.65
2023-04-20T13:50:48.160Z,14.93
2023-04-20T13:53:14.545Z,8.18
2023-04-20T13:55:40.908Z,7.40
2023-04-20T13:58:07.320Z,10.90
2023-04-20T14:00:34.760Z,8.48
2023-04-20T14:03:02.232Z,7.10
2023-04-20T14:05:28.903Z,8.23
2023-04-20T14:07:55.523Z,8.40
2023-04-20T14:10:22.044Z,7.75
2023-04-20T14:12:48.541Z,9.57
2023-04-20T14:15:15.093Z,7.22
2023-04-20T14:17:41.550Z,7.00
2023-04-20T14:20:09.375Z,7.03
2023-04-20T14:22:37.319Z,6.32
2023-04-20T14:25:04.906Z,5.78
2023-04-20T14:27:31.474Z,7.65
2023-04-20T14:29:58.291Z,8.88
2023-04-20T14:32:24.730Z,6.90
2023-04-20T14:34:51.321Z,10.20
2023-04-20T14:37:17.791Z,7.50
2023-04-20T14:39:44.165Z,6.68
2023-04-20T14:42:10.623Z,9.37
2023-04-20T14:44:37.011Z,13.15
2023-04-20T14:47:03.492Z,7.78
2023-04-20T14:49:30.038Z,7.97
2023-04-20T14:51:56.470Z,7.43
2023-04-20T14:54:22.902Z,6.68
2023-04-20T14:56:49.315Z,8.00
2023-04-20T14:59:15.710Z,7.85
2023-04-20T15:01:51.584Z,10.20
2023-04-20T15:04:21.740Z,7.82
2023-04-20T15:06:48.411Z,8.15
2023-04-20T15:09:14.961Z,8.10
2023-04-20T15:11:41.332Z,7.90
2023-04-20T15:14:07.705Z,7.60
2023-04-20T15:16:34.279Z,8.10
2023-04-20T15:19:00.686Z,8.48
2023-04-20T15:21:27.574Z,8.52
2023-04-20T15:23:53.978Z,8.65
2023-04-20T15:26:20.826Z,9.18
2023-04-20T15:28:47.538Z,11.25
2023-04-20T15:31:16.521Z,9.35
2023-04-20T15:33:44.812Z,14.13
2023-04-20T15:36:11.396Z,7.50
2023-04-20T15:38:37.778Z,13.95
2023-04-20T15:41:04.242Z,10.10
2023-04-20T15:43:30.725Z,12.80
2023-04-20T15:45:57.232Z,8.52
2023-04-20T15:48:23.645Z,11.32
2023-04-20T15:50:51.811Z,8.50
2023-04-20T15:53:19.566Z,8.63
2023-04-20T15:55:46.289Z,11.95
2023-04-20T15:58:12.813Z,8.15
2023-04-20T16:00:41.346Z,8.20
2023-04-20T16:03:07.887Z,10.35
2023-04-20T16:05:34.541Z,8.20
2023-04-20T16:08:01.325Z,7.18
2023-04-20T16:10:27.876Z,11.40
2023-04-20T16:12:54.415Z,9.38
2023-04-20T16:15:21.150Z,7.25
2023-04-20T16:17:47.704Z,12.43
2023-04-20T16:20:14.278Z,8.18
2023-04-20T16:22:40.942Z,9.45
2023-04-20T16:25:07.801Z,7.22
2023-04-20T16:27:34.185Z,9.70
2023-04-20T16:30:00.810Z,8.50
2023-04-20T16:32:27.971Z,7.97
2023-04-20T16:34:54.469Z,7.05
2023-04-20T16:37:20.937Z,6.45
2023-04-20T16:39:47.401Z,7.85
2023-04-20T16:42:13.855Z,7.55
2023-04-20T16:44:41.838Z,6.85
2023-04-20T16:47:08.594Z,10.95
2023-04-20T16:49:35.852Z,6.47
2023-04-20T16:52:02.322Z,8.10
2023-04-20T16:54:28.768Z,7.05
2023-04-20T16:56:55.900Z,8.30
2023-04-20T16:59:22.314Z,6.88
2023-04-20T17:01:49.231Z,6.00
2023-04-20T17:04:17.581Z,6.10
2023-04-20T17:06:46.313Z,7.50
2023-04-20T17:09:12.740Z,7.20
2023-04-20T17:11:39.782Z,7.93
2023-04-20T17:14:07.270Z,10.00
2023-04-20T17:16:33.793Z,7.88
2023-04-20T17:19:00.631Z,7.83
2023-04-20T17:21:28.914Z,8.73
2023-04-20T17:23:56.238Z,8.20
2023-04-20T17:28:49.227Z,9.90
2023-04-20T17:31:15.712Z,8.00
2023-04-20T17:33:43.349Z,8.23
2023-04-20T17:36:09.878Z,10.65
2023-04-20T17:38:38.349Z,8.67
2023-04-20T17:41:04.914Z,7.38
2023-04-20T17:43:31.422Z,8.67
2023-04-20T17:46:00.786Z,15.50
2023-04-20T17:48:27.692Z,9.88
2023-04-20T17:50:54.483Z,9.15
2023-04-20T17:53:21.227Z,9.25
2023-04-20T17:55:47.688Z,9.77
2023-04-20T17:58:14.189Z,9.32
2023-04-20T18:00:40.840Z,9.10
2023-04-20T18:03:07.434Z,11.13
2023-04-20T18:05:33.991Z,8.80
2023-04-20T18:08:00.697Z,9.30
2023-04-20T18:10:27.900Z,10.45
2023-04-20T18:12:54.399Z,9.57
2023-04-20T18:15:20.936Z,11.40
2023-04-20T18:17:47.444Z,12.27
2023-04-20T18:20:13.946Z,11.77
2023-04-20T18:22:40.515Z,12.10
2023-04-20T18:25:07.175Z,12.27
2023-04-20T18:27:33.645Z,11.68
2023-04-20T18:30:00.145Z,11.63
2023-04-20T18:32:27.493Z,16.52
2023-04-20T18:37:20.608Z,13.90
2023-04-20T18:39:47.038Z,13.35
2023-04-20T18:42:13.508Z,12.00
2023-04-20T18:44:40.619Z,11.60
2023-04-20T18:47:07.190Z,12.88
2023-04-20T18:49:34.933Z,13.95
2023-04-20T18:52:01.535Z,12.85
2023-04-20T18:54:28.109Z,14.00
2023-04-20T18:56:58.340Z,16.07
2023-04-20T18:59:25.028Z,12.15
2023-04-20T19:01:52.482Z,19.60
2023-04-20T19:04:19.737Z,14.13
2023-04-20T19:06:46.402Z,13.05
2023-04-20T19:09:12.897Z,11.75
2023-04-20T19:11:39.323Z,14.30
2023-04-20T19:14:05.890Z,12.68
2023-04-20T19:16:34.087Z,14.83
2023-04-20T19:19:01.126Z,13.38
2023-04-20T19:21:27.704Z,12.70
2023-04-20T19:23:54.138Z,13.77
2023-04-20T19:26:20.626Z,16.80
2023-04-20T19:28:47.151Z,16.27
2023-04-20T19:31:13.897Z,15.60
2023-04-20T19:33:40.766Z,14.70
2023-04-20T19:36:08.249Z,13.65
2023-04-20T19:41:01.705Z,14.93
2023-04-20T19:43:28.106Z,15.75
2023-04-20T19:45:58.853Z,17.80
2023-04-20T19:48:26.022Z,17.48
2023-04-20T19:50:52.984Z,17.30
2023-04-20T19:53:19.464Z,17.23
2023-04-20T19:55:45.918Z,18.42
2023-04-20T19:58:13.347Z,17.67
2023-04-20T20:00:40.054Z,15.98
2023-04-20T20:03:08.143Z,14.13
2023-04-20T20:05:35.115Z,15.50
2023-04-20T20:08:01.655Z,16.65
2023-04-20T20:10:28.091Z,18.13
2023-04-20T20:12:54.559Z,16.23
2023-04-20T20:15:21.012Z,18.95
2023-04-20T20:17:47.731Z,16.55
2023-04-20T20:20:15.586Z,14.52
2023-04-20T20:22:48.134Z,15.30
2023-04-20T20:25:20.945Z,19.63
2023-04-20T20:27:47.443Z,16.45
2023-04-20T20:30:14.730Z,17.70
2023-04-20T20:32:41.627Z,19.05
2023-04-20T20:35:11.439Z,16.10
2023-04-20T20:37:38.828Z,15.43
2023-04-20T20:40:06.915Z,16.63
2023-04-20T20:42:34.069Z,15.82
2023-04-20T20:45:01.002Z,21.95
2023-04-20T20:47:27.560Z,16.48
2023-04-20T20:49:54.100Z,19.10
2023-04-20T20:52:21.107Z,17.80
2023-04-20T20:54:47.556Z,17.15
2023-04-20T20:57:13.929Z,17.80
2023-04-20T20:59:40.368Z,19.20
2023-04-20T21:02:06.819Z,17.80
2023-04-20T21:04:33.304Z,17.08
2023-04-20T21:06:59.739Z,19.27
2023-04-20T21:09:26.493Z,16.67
2023-04-20T21:11:53.137Z,17.40
2023-04-20T21:14:19.650Z,18.70
2023-04-20T21:16:46.166Z,20.25
2023-04-20T21:19:12.612Z,18.80
2023-04-20T21:21:38.997Z,21.45
2023-04-20T21:24:05.463Z,17.60
2023-04-20T21:26:35.721Z,16.92
2023-04-20T21:29:03.438Z,17.80
2023-04-20T21:31:30.636Z,18.90
2023-04-20T21:33:57.628Z,19.02
2023-04-20T21:36:24.075Z,18.60
2023-04-20T21:38:50.544Z,18.17
2023-04-20T21:41:17.035Z,21.02
2023-04-20T21:43:43.663Z,19.90
2023-04-20T21:46:14.569Z,21.07
2023-04-20T21:48:41.074Z,25.17
2023-04-20T21:51:07.579Z,19.63
2023-04-20T21:53:34.073Z,22.52
2023-04-20T21:56:00.444Z,23.70
2023-04-20T21:58:26.826Z,23.48
2023-04-20T22:00:53.194Z,21.95
2023-04-20T22:03:19.715Z,24.27
2023-04-20T22:05:46.153Z,25.33
2023-04-20T22:08:14.607Z,24.05
2023-04-20T22:10:41.500Z,22.67
2023-04-20T22:13:07.860Z,25.55
2023-04-20T22:15:34.271Z,23.08
2023-04-20T22:18:00.796Z,22.52
2023-04-20T22:20:27.761Z,24.43
2023-04-20T22:22:54.157Z,23.85
2023-04-20T22:25:20.765Z,24.20
2023-04-20T22:27:47.153Z,25.13
2023-04-20T22:30:13.671Z,23.98
2023-04-20T22:32:40.949Z,27.52
2023-04-20T22:35:07.933Z,30.23
2023-04-20T22:37:34.649Z,24.20
2023-04-20T22:40:01.187Z,30.05
2023-04-20T22:42:27.671Z,28.53
2023-04-20T22:44:54.082Z,25.98
2023-04-20T22:47:20.542Z,30.13
2023-04-20T22:49:47.369Z,27.58
2023-04-20T22:52:13.807Z,28.23
2023-04-20T22:54:40.336Z,28.17
2023-04-20T22:57:06.709Z,28.33
2023-04-20T22:59:33.130Z,28.20
2023-04-20T23:01:59.666Z,29.83
2023-04-20T23:04:26.510Z,30.57
2023-04-20T23:06:52.990Z,28.33
2023-04-20T23:09:20.669Z,33.73
2023-04-20T23:11:47.387Z,33.38
2023-04-20T23:14:14.106Z,31.20
2023-04-20T23:16:41.168Z,30.42
2023-04-20T23:19:07.721Z,31.50
2023-04-20T23:21:34.294Z,33.25
2023-04-20T23:24:00.639Z,31.90
2023-04-20T23:26:27.063Z,31.13
2023-04-20T23:28:53.555Z,28.33
2023-04-20T23:31:20.558Z,32.15
2023-04-20T23:33:47.824Z,29.30
2023-04-20T23:36:14.336Z,30.45
2023-04-20T23:38:40.886Z,32.50
2023-04-20T23:41:11.678Z,29.75
2023-04-20T23:43:38.825Z,28.65
2023-04-20T23:46:06.414Z,29.52
2023-04-20T23:48:33.311Z,27.85
2023-04-20T23:51:00.470Z,30.95
2023-04-20T23:53:27.318Z,29.13
2023-04-20T23:55:55.613Z,31.58
2023-04-20T23:58:28.817Z,24.27
